createdAt,value
2023-02-11T00:01:28.971Z,-2.42
2023-02-11T00:03:31.662Z,-2.59
2023-02-11T00:05:34.867Z,-2.57
2023-02-11T00:07:37.848Z,-2.39
2023-02-11T00:09:40.599Z,-2.75
2023-02-11T00:11:43.108Z,-2.27
2023-02-11T00:13:46.479Z,-2.68
2023-02-11T00:15:49.607Z,-2.43
2023-02-11T00:17:52.297Z,-2.63
2023-02-11T00:19:55.105Z,-2.52
2023-02-11T00:21:57.635Z,-3.07
2023-02-11T00:24:02.807Z,-3.04
2023-02-11T00:26:12.721Z,-2.80
2023-02-11T00:28:15.902Z,-3.42
2023-02-11T00:30:18.198Z,-3.17
2023-02-11T00:32:20.647Z,-3.15
2023-02-11T00:34:23.757Z,-3.03
2023-02-11T00:36:28.531Z,-2.89
2023-02-11T00:38:30.866Z,-3.23
2023-02-11T00:40:33.297Z,-3.32
2023-02-11T00:42:39.062Z,-2.80
2023-02-11T00:44:41.885Z,-3.03
2023-02-11T00:46:45.084Z,-2.86
2023-02-11T00:48:47.826Z,-2.83
2023-02-11T00:50:50.871Z,-3.02
2023-02-11T00:52:53.378Z,-3.19
2023-02-11T00:54:56.047Z,-3.02
2023-02-11T00:56:58.657Z,-2.60
2023-02-11T00:59:00.865Z,-2.75
2023-02-11T01:01:03.414Z,-2.67
2023-02-11T01:03:05.848Z,-2.80
2023-02-11T01:05:08.688Z,-2.82
2023-02-11T01:07:11.220Z,-3.40
2023-02-11T01:09:13.745Z,-3.30
2023-02-11T01:11:19.718Z,-3.06
2023-02-11T01:13:23.241Z,-3.04
2023-02-11T01:15:25.986Z,-3.35
2023-02-11T01:17:28.387Z,-2.83
2023-02-11T01:19:30.609Z,-3.14
2023-02-11T01:21:33.041Z,-2.75
2023-02-11T01:23:35.363Z,-2.81
2023-02-11T01:25:37.804Z,-3.06
2023-02-11T01:27:40.235Z,-2.96
2023-02-11T01:29:42.673Z,-2.87
2023-02-11T01:31:45.442Z,-2.94
2023-02-11T01:33:49.471Z,-2.73
2023-02-11T01:35:52.871Z,-3.01
2023-02-11T01:37:55.510Z,-2.70
2023-02-11T01:39:57.804Z,-2.95
2023-02-11T01:42:01.705Z,-2.88
2023-02-11T01:44:23.573Z,-2.30
2023-02-11T01:46:36.886Z,-2.32
2023-02-11T01:48:44.058Z,-2.47
2023-02-11T01:50:49.728Z,-2.65
2023-02-11T01:52:52.136Z,-2.37
2023-02-11T01:55:18.094Z,-2.42
2023-02-11T01:57:25.412Z,-2.45
2023-02-11T01:59:30.823Z,-2.21
2023-02-11T02:01:33.858Z,-2.24
2023-02-11T02:03:42.954Z,-2.54
2023-02-11T02:06:06.656Z,-2.70
2023-02-11T02:08:17.718Z,-2.42
2023-02-11T02:10:25.854Z,-2.49
2023-02-11T02:12:28.305Z,-2.22
2023-02-11T02:14:30.902Z,-2.31
2023-02-11T02:16:37.460Z,-2.54
2023-02-11T02:19:25.359Z,-2.08
2023-02-11T02:21:55.501Z,-2.05
2023-02-11T02:24:22.377Z,-2.01
2023-02-11T02:26:54.237Z,-2.00
2023-02-11T02:29:13.662Z,-2.51
2023-02-11T02:31:24.824Z,-2.03
2023-02-11T02:33:34.172Z,-1.94
2023-02-11T02:35:48.964Z,-1.90
2023-02-11T02:38:10.884Z,-2.18
2023-02-11T02:40:20.414Z,-2.12
2023-02-11T02:42:23.929Z,-2.54
2023-02-11T02:44:26.522Z,-2.56
2023-02-11T02:46:32.957Z,-2.16
2023-02-11T02:48:36.441Z,-2.25
2023-02-11T02:50:38.848Z,-2.24
2023-02-11T02:52:56.061Z,-1.77
2023-02-11T02:55:07.428Z,-2.18
2023-02-11T02:57:27.913Z,-1.82
2023-02-11T03:00:00.989Z,-2.00
2023-02-11T03:02:14.548Z,-2.08
2023-02-11T03:04:34.106Z,-1.76
2023-02-11T03:07:00.816Z,-1.93
2023-02-11T03:09:15.128Z,-1.71
2023-02-11T03:11:20.049Z,-2.19
2023-02-11T03:13:27.933Z,-1.92
2023-02-11T03:15:35.650Z,-2.17
2023-02-11T03:17:41.849Z,-2.39
2023-02-11T03:19:47.449Z,-1.83
2023-02-11T03:21:52.327Z,-1.95
2023-02-11T03:23:56.890Z,-2.07
2023-02-11T03:26:10.048Z,-1.89
2023-02-11T03:28:15.311Z,-1.54
2023-02-11T03:30:26.297Z,-2.21
2023-02-11T03:32:31.785Z,-2.18
2023-02-11T03:34:34.103Z,-1.79
2023-02-11T03:36:47.798Z,-1.61
2023-02-11T03:38:56.858Z,-1.74
2023-02-11T03:41:02.437Z,-1.88
2023-02-11T03:43:18.270Z,-1.96
2023-02-11T03:45:23.343Z,-1.89
2023-02-11T03:47:29.849Z,-1.67
2023-02-11T03:49:33.638Z,-1.41
2023-02-11T03:51:37.191Z,-1.72
2023-02-11T03:53:43.573Z,-1.43
2023-02-11T03:55:49.667Z,-1.36
2023-02-11T03:57:53.033Z,-1.44
2023-02-11T03:59:59.694Z,-1.49
2023-02-11T04:02:02.361Z,-1.71
2023-02-11T04:04:04.814Z,-1.39
2023-02-11T04:06:08.359Z,-1.66
2023-02-11T04:08:10.828Z,-1.24
2023-02-11T04:10:13.266Z,-1.22
2023-02-11T04:12:15.803Z,-1.35
2023-02-11T04:14:18.128Z,-1.48
2023-02-11T04:16:21.216Z,-1.49
2023-02-11T04:18:23.484Z,-1.42
2023-02-11T04:20:25.805Z,-1.57
2023-02-11T04:22:28.115Z,-1.19
2023-02-11T04:24:30.563Z,-1.71
2023-02-11T04:26:33.784Z,-1.34
2023-02-11T04:28:36.879Z,-1.94
2023-02-11T04:30:39.237Z,-1.84
2023-02-11T04:32:42.131Z,-1.33
2023-02-11T04:34:44.414Z,-1.62
2023-02-11T04:36:48.225Z,-1.30
2023-02-11T04:38:50.504Z,-1.13
2023-02-11T04:40:52.905Z,-1.38
2023-02-11T04:42:55.245Z,-1.26
2023-02-11T04:44:57.472Z,-1.39
2023-02-11T04:46:59.723Z,-1.33
2023-02-11T04:49:01.922Z,-1.13
2023-02-11T04:51:04.295Z,-1.45
2023-02-11T04:53:07.284Z,-0.81
2023-02-11T04:55:09.812Z,-1.33
2023-02-11T04:57:12.066Z,-0.96
2023-02-11T04:59:14.454Z,-1.09
2023-02-11T05:01:17.296Z,-1.08
2023-02-11T05:03:19.628Z,-1.57
2023-02-11T05:05:22.189Z,-1.22
2023-02-11T05:07:24.709Z,-1.11
2023-02-11T05:09:26.939Z,-1.20
2023-02-11T05:11:29.242Z,-1.31
2023-02-11T05:13:31.735Z,-1.44
2023-02-11T05:15:33.945Z,-1.39
2023-02-11T05:17:36.986Z,-1.32
2023-02-11T05:19:39.471Z,-1.23
2023-02-11T05:21:56.591Z,-1.56
2023-02-11T05:24:02.929Z,-1.15
2023-02-11T05:26:05.750Z,-0.91
2023-02-11T05:28:08.103Z,-1.18
2023-02-11T05:30:11.476Z,-1.22
2023-02-11T05:32:13.778Z,-1.52
2023-02-11T05:34:16.287Z,-1.21
2023-02-11T05:36:18.882Z,-1.55
2023-02-11T05:38:21.470Z,-1.29
2023-02-11T05:40:24.643Z,-1.64
2023-02-11T05:42:27.313Z,-1.51
2023-02-11T05:44:29.740Z,-1.53
2023-02-11T05:46:32.204Z,-1.31
2023-02-11T05:48:35.032Z,-1.89
2023-02-11T05:50:37.562Z,-1.56
2023-02-11T05:52:40.015Z,-1.46
2023-02-11T05:54:42.555Z,-1.41
2023-02-11T05:56:45.152Z,-1.42
2023-02-11T05:58:47.694Z,-1.16
2023-02-11T06:00:49.877Z,-0.96
2023-02-11T06:02:52.444Z,-1.14
2023-02-11T06:04:54.672Z,-1.14
2023-02-11T06:06:57.203Z,-0.89
2023-02-11T06:08:59.587Z,-1.48
2023-02-11T06:11:02.229Z,-1.34
2023-02-11T06:13:04.894Z,-1.41
2023-02-11T06:15:07.963Z,-1.34
2023-02-11T06:17:10.154Z,-1.04
2023-02-11T06:19:13.348Z,-0.99
2023-02-11T06:21:15.879Z,-1.01
2023-02-11T06:23:18.767Z,-1.32
2023-02-11T06:25:21.199Z,-1.17
2023-02-11T06:27:23.861Z,-1.07
2023-02-11T06:29:26.472Z,-1.04
2023-02-11T06:31:29.349Z,-0.95
2023-02-11T06:33:33.188Z,-0.82
2023-02-11T06:35:38.213Z,-0.93
2023-02-11T06:37:41.425Z,-0.94
2023-02-11T06:39:45.455Z,-0.85
2023-02-11T06:41:47.819Z,-0.99
2023-02-11T06:43:50.707Z,-0.85
2023-02-11T06:45:56.466Z,-0.84
2023-02-11T06:47:58.904Z,-0.90
2023-02-11T06:50:01.099Z,-1.00
2023-02-11T06:52:03.925Z,-1.04
2023-02-11T06:54:07.094Z,-1.04
2023-02-11T06:56:13.454Z,-1.04
2023-02-11T06:58:16.110Z,-0.95
2023-02-11T07:00:18.683Z,-1.14
2023-02-11T07:02:21.352Z,-0.93
2023-02-11T07:04:23.824Z,-1.09
2023-02-11T07:06:28.266Z,-1.08
2023-02-11T07:08:30.830Z,-0.87
2023-02-11T07:10:34.394Z,-0.58
2023-02-11T07:12:37.038Z,-0.69
2023-02-11T07:14:40.041Z,-0.83
2023-02-11T07:16:42.386Z,-1.02
2023-02-11T07:18:45.845Z,-0.67
2023-02-11T07:20:48.637Z,-0.53
2023-02-11T07:22:51.210Z,-0.66
2023-02-11T07:24:53.585Z,-0.76
2023-02-11T07:26:56.257Z,-0.97
2023-02-11T07:28:58.779Z,-0.58
2023-02-11T07:31:07.890Z,-0.50
2023-02-11T07:33:10.891Z,-0.34
2023-02-11T07:35:13.565Z,-0.39
2023-02-11T07:37:15.888Z,0.00
2023-02-11T07:39:18.495Z,0.10
2023-02-11T07:41:23.299Z,0.21
2023-02-11T07:43:25.902Z,0.25
2023-02-11T07:45:28.110Z,0.48
2023-02-11T07:47:30.853Z,0.48
2023-02-11T07:49:33.271Z,0.61
2023-02-11T07:51:35.560Z,0.48
2023-02-11T07:53:39.023Z,0.83
2023-02-11T07:55:42.800Z,0.60
2023-02-11T07:57:45.638Z,0.77
2023-02-11T07:59:48.031Z,1.00
2023-02-11T08:01:51.770Z,0.81
2023-02-11T08:03:58.917Z,1.07
2023-02-11T08:06:12.243Z,1.35
2023-02-11T08:08:14.439Z,1.60
2023-02-11T08:10:16.854Z,1.12
2023-02-11T08:12:19.340Z,1.73
2023-02-11T08:14:21.554Z,1.48
2023-02-11T08:16:27.779Z,1.24
2023-02-11T08:18:31.278Z,1.76
2023-02-11T08:20:34.107Z,1.46
2023-02-11T08:22:36.316Z,2.08
2023-02-11T08:24:38.826Z,1.90
2023-02-11T08:26:41.334Z,1.84
2023-02-11T08:28:45.951Z,2.21
2023-02-11T08:30:49.214Z,1.75
2023-02-11T08:32:52.696Z,2.13
2023-02-11T08:34:55.182Z,2.01
2023-02-11T08:36:58.247Z,2.18
2023-02-11T08:39:20.648Z,2.17
2023-02-11T08:41:23.275Z,2.00
2023-02-11T08:43:25.937Z,2.30
2023-02-11T08:45:28.919Z,2.17
2023-02-11T08:47:32.199Z,2.59
2023-02-11T08:49:34.895Z,2.45
2023-02-11T08:51:37.283Z,2.54
2023-02-11T08:53:40.117Z,2.53
2023-02-11T08:55:49.356Z,2.37
2023-02-11T08:57:51.921Z,2.51
2023-02-11T08:59:54.191Z,2.75
2023-02-11T09:01:56.779Z,2.47
2023-02-11T09:03:59.953Z,2.68
2023-02-11T09:06:05.968Z,2.86
2023-02-11T09:08:08.324Z,2.72
2023-02-11T09:10:11.769Z,2.99
2023-02-11T09:12:14.408Z,2.80
2023-02-11T09:14:22.088Z,3.15
2023-02-11T09:16:28.712Z,2.81
2023-02-11T09:18:31.757Z,2.88
2023-02-11T09:20:34.704Z,3.08
2023-02-11T09:22:37.090Z,2.71
2023-02-11T09:24:39.532Z,2.97
2023-02-11T09:26:43.743Z,3.18
2023-02-11T09:28:47.076Z,3.11
2023-02-11T09:30:50.073Z,3.28
2023-02-11T09:32:52.648Z,3.08
2023-02-11T09:34:55.024Z,3.15
2023-02-11T09:36:57.830Z,3.44
2023-02-11T09:39:02.502Z,3.44
2023-02-11T09:41:08.030Z,3.30
2023-02-11T09:43:33.974Z,3.55
2023-02-11T09:45:36.498Z,3.03
2023-02-11T09:48:04.419Z,3.57
2023-02-11T09:50:36.224Z,3.75
2023-02-11T09:53:05.465Z,3.81
2023-02-11T09:55:25.345Z,3.66
2023-02-11T09:57:36.608Z,3.88
2023-02-11T09:59:40.637Z,3.54
2023-02-11T10:01:51.302Z,3.67
2023-02-11T10:04:31.161Z,3.96
2023-02-11T10:06:52.693Z,3.81
2023-02-11T10:09:16.704Z,4.13
2023-02-11T10:11:32.108Z,4.23
2023-02-11T10:13:52.972Z,4.34
2023-02-11T10:16:22.546Z,4.36
2023-02-11T10:18:46.083Z,4.40
2023-02-11T10:21:20.987Z,4.42
2023-02-11T10:23:27.184Z,4.17
2023-02-11T10:25:45.232Z,4.23
2023-02-11T10:27:49.134Z,4.58
2023-02-11T10:30:02.999Z,4.51
2023-02-11T10:32:25.371Z,4.24
2023-02-11T10:34:27.623Z,4.35
2023-02-11T10:36:34.260Z,4.38
2023-02-11T10:38:37.250Z,4.80
2023-02-11T10:40:39.707Z,4.68
2023-02-11T10:42:47.409Z,5.00
2023-02-11T10:45:01.339Z,4.94
2023-02-11T10:47:12.508Z,4.88
2023-02-11T10:49:40.036Z,5.24
2023-02-11T10:51:42.583Z,5.25
2023-02-11T10:53:46.677Z,5.07
2023-02-11T10:55:54.874Z,5.37
2023-02-11T10:58:01.387Z,5.25
2023-02-11T11:00:18.922Z,5.39
2023-02-11T11:02:34.631Z,5.33
2023-02-11T11:04:42.986Z,5.39
2023-02-11T11:06:45.372Z,5.39
2023-02-11T11:08:50.653Z,5.64
2023-02-11T11:11:14.584Z,5.54
2023-02-11T11:13:32.756Z,5.61
2023-02-11T11:15:34.914Z,5.44
2023-02-11T11:17:38.656Z,5.49
2023-02-11T11:19:41.063Z,5.54
2023-02-11T11:21:52.429Z,5.48
2023-02-11T11:24:04.338Z,5.73
2023-02-11T11:26:13.056Z,5.55
2023-02-11T11:28:25.631Z,5.46
2023-02-11T11:30:35.181Z,5.53
2023-02-11T11:32:38.174Z,5.23
2023-02-11T11:34:49.799Z,5.53
2023-02-11T11:36:56.646Z,5.36
2023-02-11T11:39:03.669Z,5.21
2023-02-11T11:41:17.808Z,5.56
2023-02-11T11:43:23.350Z,5.37
2023-02-11T11:45:27.451Z,5.55
2023-02-11T11:47:41.252Z,5.61
2023-02-11T11:49:52.973Z,5.13
2023-02-11T11:52:27.243Z,5.48
2023-02-11T11:54:31.669Z,5.57
2023-02-11T11:56:38.414Z,5.50
2023-02-11T11:58:41.133Z,5.56
2023-02-11T12:00:56.251Z,5.68
2023-02-11T12:03:26.180Z,5.47
2023-02-11T12:05:38.624Z,5.39
2023-02-11T12:07:56.243Z,5.78
2023-02-11T12:10:36.113Z,5.72
2023-02-11T12:12:41.679Z,5.67
2023-02-11T12:15:08.011Z,5.72
2023-02-11T12:17:20.130Z,5.71
2023-02-11T12:19:57.727Z,5.69
2023-02-11T12:22:19.498Z,5.72
2023-02-11T12:24:24.988Z,5.74
2023-02-11T12:26:38.811Z,5.72
2023-02-11T12:29:20.677Z,5.62
2023-02-11T12:31:33.747Z,5.62
2023-02-11T12:33:54.741Z,5.82
2023-02-11T12:36:06.250Z,5.50
2023-02-11T12:38:19.220Z,5.83
2023-02-11T12:40:35.156Z,5.72
2023-02-11T12:43:15.413Z,5.55
2023-02-11T12:46:05.214Z,5.78
2023-02-11T12:48:38.324Z,5.82
2023-02-11T12:51:04.125Z,5.76
2023-02-11T12:53:28.293Z,5.77
2023-02-11T12:55:40.248Z,5.27
2023-02-11T12:57:46.792Z,5.41
2023-02-11T12:59:59.746Z,5.62
2023-02-11T13:02:12.789Z,5.44
2023-02-11T13:04:35.364Z,5.64
2023-02-11T13:06:42.587Z,5.39
2023-02-11T13:08:49.256Z,5.21
2023-02-11T13:10:55.822Z,5.19
2023-02-11T13:13:17.318Z,5.40
2023-02-11T13:15:20.383Z,5.34
2023-02-11T13:17:57.952Z,5.21
2023-02-11T13:20:15.288Z,5.30
2023-02-11T13:22:27.594Z,5.30
2023-02-11T13:24:53.568Z,5.54
2023-02-11T13:27:01.993Z,5.58
2023-02-11T13:29:19.766Z,5.22
2023-02-11T13:31:27.026Z,5.42
2023-02-11T13:33:37.988Z,5.24
2023-02-11T13:35:45.512Z,5.17
2023-02-11T13:37:48.393Z,5.28
2023-02-11T13:40:27.339Z,5.57
2023-02-11T13:42:31.549Z,5.56
2023-02-11T13:44:35.210Z,5.39
2023-02-11T13:47:00.016Z,5.60
2023-02-11T13:49:02.571Z,5.45
2023-02-11T13:51:11.014Z,5.40
2023-02-11T13:53:15.987Z,5.42
2023-02-11T13:55:24.543Z,5.00
2023-02-11T13:57:36.183Z,5.39
2023-02-11T13:59:38.829Z,5.58
2023-02-11T14:02:19.807Z,5.46
2023-02-11T14:04:44.139Z,5.35
2023-02-11T14:07:46.458Z,5.58
2023-02-11T14:09:53.770Z,5.24
2023-02-11T14:12:33.996Z,5.47
2023-02-11T14:15:03.285Z,4.86
2023-02-11T14:17:09.507Z,5.40
2023-02-11T14:19:11.796Z,5.05
2023-02-11T14:21:30.877Z,5.42
2023-02-11T14:23:33.389Z,5.36
2023-02-11T14:25:39.237Z,5.27
2023-02-11T14:27:44.432Z,5.10
2023-02-11T14:30:01.963Z,5.38
2023-02-11T14:32:10.154Z,5.17
2023-02-11T14:34:40.772Z,5.24
2023-02-11T14:37:09.548Z,5.41
2023-02-11T14:39:40.713Z,5.45
2023-02-11T14:41:46.649Z,5.21
2023-02-11T14:44:15.222Z,5.23
2023-02-11T14:46:20.203Z,5.11
2023-02-11T14:48:31.427Z,5.10
2023-02-11T14:50:51.517Z,5.04
2023-02-11T14:52:55.464Z,4.88
2023-02-11T14:55:20.912Z,4.96
2023-02-11T14:57:23.947Z,4.79
2023-02-11T14:59:26.798Z,4.91
2023-02-11T15:01:34.630Z,5.19
2023-02-11T15:03:40.234Z,4.82
2023-02-11T15:05:43.491Z,5.00
2023-02-11T15:07:52.441Z,5.04
2023-02-11T15:09:54.898Z,5.29
2023-02-11T15:11:58.891Z,4.93
2023-02-11T15:14:11.440Z,5.08
2023-02-11T15:16:18.835Z,5.35
2023-02-11T15:18:25.208Z,5.17
2023-02-11T15:20:32.410Z,5.15
2023-02-11T15:22:37.278Z,5.29
2023-02-11T15:24:41.269Z,5.02
2023-02-11T15:26:43.909Z,4.93
2023-02-11T15:28:52.905Z,5.10
2023-02-11T15:31:04.661Z,4.95
2023-02-11T15:33:21.417Z,5.13
2023-02-11T15:35:24.870Z,5.17
2023-02-11T15:37:33.117Z,4.94
2023-02-11T15:39:44.107Z,4.93
2023-02-11T15:41:46.519Z,5.21
2023-02-11T15:43:54.759Z,5.40
2023-02-11T15:46:02.468Z,5.21
2023-02-11T15:48:19.123Z,5.42
2023-02-11T15:50:25.186Z,4.92
2023-02-11T15:52:28.891Z,5.26
2023-02-11T15:54:34.897Z,5.20
2023-02-11T15:56:43.662Z,5.34
2023-02-11T15:58:49.770Z,5.04
2023-02-11T16:01:00.118Z,4.89
2023-02-11T16:03:03.445Z,4.93
2023-02-11T16:05:09.388Z,4.72
2023-02-11T16:07:43.532Z,5.22
2023-02-11T16:09:46.343Z,4.95
2023-02-11T16:11:48.609Z,5.17
2023-02-11T16:13:51.014Z,5.09
2023-02-11T16:16:02.693Z,4.82
2023-02-11T16:18:16.155Z,4.87
2023-02-11T16:20:21.658Z,4.95
2023-02-11T16:22:35.786Z,4.80
2023-02-11T16:24:39.744Z,4.74
2023-02-11T16:26:46.866Z,4.74
2023-02-11T16:28:49.684Z,4.42
2023-02-11T16:30:55.881Z,4.74
2023-02-11T16:32:58.315Z,4.72
2023-02-11T16:35:02.526Z,4.68
2023-02-11T16:37:06.186Z,4.29
2023-02-11T16:39:09.507Z,4.57
2023-02-11T16:41:13.054Z,4.50
2023-02-11T16:43:20.071Z,4.66
2023-02-11T16:45:22.497Z,4.59
2023-02-11T16:47:27.929Z,4.65
2023-02-11T16:49:40.887Z,4.33
2023-02-11T16:51:44.817Z,4.64
2023-02-11T16:53:47.193Z,4.49
2023-02-11T16:55:50.130Z,4.42
2023-02-11T16:57:52.993Z,4.63
2023-02-11T16:59:55.357Z,4.47
2023-02-11T17:01:58.467Z,4.36
2023-02-11T17:04:01.389Z,4.69
2023-02-11T17:06:06.216Z,4.47
2023-02-11T17:08:09.947Z,4.58
2023-02-11T17:10:21.686Z,4.58
2023-02-11T17:12:28.182Z,4.76
2023-02-11T17:14:30.634Z,4.68
2023-02-11T17:16:33.363Z,4.64
2023-02-11T17:18:37.678Z,4.68
2023-02-11T17:20:40.827Z,4.55
2023-02-11T17:22:43.957Z,4.35
2023-02-11T17:24:46.509Z,4.70
2023-02-11T17:26:50.156Z,4.76
2023-02-11T17:28:53.712Z,4.34
2023-02-11T17:30:56.278Z,4.38
2023-02-11T17:32:58.887Z,4.38
2023-02-11T17:35:01.690Z,4.71
2023-02-11T17:37:09.421Z,4.66
2023-02-11T17:39:12.206Z,4.68
2023-02-11T17:41:14.919Z,4.40
2023-02-11T17:43:17.197Z,4.46
2023-02-11T17:45:22.172Z,4.35
2023-02-11T17:47:25.681Z,4.69
2023-02-11T17:49:28.472Z,4.52
2023-02-11T17:51:36.817Z,4.42
2023-02-11T17:53:39.387Z,4.49
2023-02-11T17:55:42.201Z,4.70
2023-02-11T17:57:44.670Z,4.75
2023-02-11T17:59:47.461Z,4.19
2023-02-11T18:01:49.937Z,4.33
2023-02-11T18:03:52.774Z,4.54
2023-02-11T18:06:00.877Z,4.38
2023-02-11T18:08:06.595Z,4.66
2023-02-11T18:10:10.033Z,4.55
2023-02-11T18:12:12.707Z,4.54
2023-02-11T18:14:15.037Z,4.56
2023-02-11T18:16:17.949Z,4.27
2023-02-11T18:18:20.390Z,4.21
2023-02-11T18:20:22.747Z,4.67
2023-02-11T18:22:26.294Z,4.57
2023-02-11T18:24:28.503Z,4.25
2023-02-11T18:26:31.280Z,4.66
2023-02-11T18:28:34.491Z,4.75
2023-02-11T18:30:36.919Z,4.48
2023-02-11T18:32:39.330Z,4.47
2023-02-11T18:34:42.268Z,4.65
2023-02-11T18:36:48.893Z,4.52
2023-02-11T18:38:53.005Z,4.58
2023-02-11T18:40:58.791Z,4.68
2023-02-11T18:43:01.511Z,4.59
2023-02-11T18:45:05.792Z,4.42
2023-02-11T18:47:08.378Z,4.34
2023-02-11T18:49:13.551Z,4.47
2023-02-11T18:51:20.817Z,4.42
2023-02-11T18:53:23.166Z,4.67
2023-02-11T18:55:26.489Z,4.36
2023-02-11T18:57:29.244Z,4.40
2023-02-11T18:59:31.715Z,4.37
2023-02-11T19:01:34.710Z,4.46
2023-02-11T19:03:38.432Z,4.31
2023-02-11T19:05:49.608Z,4.23
2023-02-11T19:07:52.149Z,4.52
2023-02-11T19:09:54.768Z,4.65
2023-02-11T19:11:58.635Z,4.53
2023-02-11T19:14:02.757Z,4.41
2023-02-11T19:16:11.507Z,4.27
2023-02-11T19:18:16.319Z,4.19
2023-02-11T19:20:19.618Z,4.40
2023-02-11T19:22:22.327Z,4.35
2023-02-11T19:24:26.650Z,4.26
2023-02-11T19:26:30.348Z,4.46
2023-02-11T19:28:34.720Z,4.60
2023-02-11T19:30:37.546Z,4.31
2023-02-11T19:32:40.054Z,4.25
2023-02-11T19:34:42.725Z,4.54
2023-02-11T19:36:45.311Z,4.41
2023-02-11T19:38:47.954Z,4.42
2023-02-11T19:40:56.918Z,4.43
2023-02-11T19:42:59.547Z,4.44
2023-02-11T19:45:02.723Z,4.59
2023-02-11T19:47:07.221Z,4.49
2023-02-11T19:49:14.708Z,4.71
2023-02-11T19:51:18.617Z,4.14
2023-02-11T19:53:22.065Z,4.10
2023-02-11T19:55:24.688Z,4.47
2023-02-11T19:57:27.261Z,4.47
2023-02-11T19:59:29.704Z,4.28
2023-02-11T20:01:32.176Z,4.61
2023-02-11T20:03:35.701Z,4.52
2023-02-11T20:05:40.484Z,4.68
2023-02-11T20:07:42.815Z,4.65
2023-02-11T20:09:45.607Z,4.42
2023-02-11T20:11:48.022Z,4.50
2023-02-11T20:13:50.486Z,4.78
2023-02-11T20:15:53.335Z,4.27
2023-02-11T20:17:56.331Z,4.72
2023-02-11T20:19:58.963Z,4.72
2023-02-11T20:22:01.816Z,4.59
2023-02-11T20:24:04.680Z,4.61
2023-02-11T20:26:13.724Z,4.68
2023-02-11T20:28:16.632Z,4.63
2023-02-11T20:30:19.306Z,4.66
2023-02-11T20:32:21.889Z,4.81
2023-02-11T20:34:25.639Z,4.66
2023-02-11T20:36:32.496Z,4.42
2023-02-11T20:38:35.425Z,4.66
2023-02-11T20:40:38.772Z,4.41
2023-02-11T20:42:41.537Z,4.77
2023-02-11T20:44:44.529Z,4.76
2023-02-11T20:46:47.624Z,4.55
2023-02-11T20:48:52.312Z,4.65
2023-02-11T20:50:55.037Z,4.36
2023-02-11T20:52:57.749Z,4.65
2023-02-11T20:55:01.914Z,4.42
2023-02-11T20:57:04.673Z,4.57
2023-02-11T20:59:08.088Z,4.34
2023-02-11T21:01:31.963Z,4.60
2023-02-11T21:03:34.616Z,4.56
2023-02-11T21:05:37.120Z,4.58
2023-02-11T21:07:40.198Z,4.65
2023-02-11T21:09:42.746Z,4.56
2023-02-11T21:11:45.708Z,4.46
2023-02-11T21:13:49.016Z,4.56
2023-02-11T21:15:56.846Z,4.31
2023-02-11T21:18:00.335Z,4.58
2023-02-11T21:20:02.799Z,4.53
2023-02-11T21:22:05.445Z,4.56
2023-02-11T21:24:09.917Z,4.42
2023-02-11T21:26:13.021Z,4.62
2023-02-11T21:28:15.765Z,4.60
2023-02-11T21:30:18.888Z,4.85
2023-02-11T21:32:21.209Z,4.45
2023-02-11T21:34:23.935Z,4.68
2023-02-11T21:36:27.897Z,4.52
2023-02-11T21:38:31.414Z,4.79
2023-02-11T21:40:33.660Z,4.65
2023-02-11T21:42:36.560Z,4.49
2023-02-11T21:44:39.377Z,4.69
2023-02-11T21:46:42.683Z,4.66
2023-02-11T21:48:45.773Z,4.71
2023-02-11T21:50:48.195Z,4.66
2023-02-11T21:52:50.981Z,4.93
2023-02-11T21:54:53.461Z,4.94
2023-02-11T21:56:56.242Z,4.75
2023-02-11T21:58:59.652Z,4.85
2023-02-11T22:01:02.162Z,4.92
2023-02-11T22:03:05.055Z,4.69
2023-02-11T22:05:07.477Z,4.72
2023-02-11T22:07:09.996Z,4.64
2023-02-11T22:09:12.702Z,4.87
2023-02-11T22:11:15.554Z,4.50
2023-02-11T22:13:18.078Z,4.43
2023-02-11T22:15:20.894Z,4.60
2023-02-11T22:17:24.109Z,4.66
2023-02-11T22:19:26.759Z,4.36
2023-02-11T22:21:29.176Z,4.23
2023-02-11T22:23:32.119Z,4.77
2023-02-11T22:25:37.046Z,4.59
2023-02-11T22:27:39.934Z,4.55
2023-02-11T22:29:43.387Z,4.56
2023-02-11T22:31:46.180Z,4.41
2023-02-11T22:33:50.041Z,4.40
2023-02-11T22:36:00.499Z,4.52
2023-02-11T22:38:03.074Z,4.51
2023-02-11T22:40:06.521Z,4.46
2023-02-11T22:42:09.443Z,4.22
2023-02-11T22:44:13.014Z,4.26
2023-02-11T22:46:18.574Z,4.56
2023-02-11T22:48:23.110Z,4.49
2023-02-11T22:50:26.436Z,4.67
2023-02-11T22:52:29.145Z,4.28
2023-02-11T22:54:31.703Z,4.40
2023-02-11T22:56:35.483Z,4.53
2023-02-11T22:58:38.115Z,4.51
2023-02-11T23:00:42.087Z,4.27
2023-02-11T23:02:44.687Z,4.40
2023-02-11T23:04:49.852Z,4.58
2023-02-11T23:06:52.776Z,4.38
2023-02-11T23:08:55.749Z,4.47
2023-02-11T23:11:23.364Z,4.61
2023-02-11T23:13:26.135Z,4.14
2023-02-11T23:15:29.157Z,4.05
2023-02-11T23:17:32.015Z,4.60
2023-02-11T23:19:34.378Z,4.35
2023-02-11T23:21:39.767Z,4.65
2023-02-11T23:23:43.434Z,4.35
2023-02-11T23:25:47.940Z,4.66
2023-02-11T23:27:50.597Z,4.43
2023-02-11T23:29:56.876Z,4.54
2023-02-11T23:31:59.404Z,4.37
2023-02-11T23:34:08.454Z,4.32
2023-02-11T23:36:11.650Z,4.42
2023-02-11T23:38:13.884Z,4.29
2023-02-11T23:40:16.417Z,4.48
2023-02-11T23:42:18.872Z,4.08
2023-02-11T23:44:21.973Z,4.69
2023-02-11T23:46:26.171Z,4.39
2023-02-11T23:48:29.056Z,4.44
2023-02-11T23:50:33.083Z,4.33
2023-02-11T23:52:35.679Z,4.69
2023-02-11T23:54:38.030Z,4.67
2023-02-11T23:56:42.664Z,4.31
2023-02-11T23:58:47.195Z,4.48
